sensor_id;sensor_type;location;lat;lon;timestamp;P1;durP1;ratioP1;P2;durP2;ratioP2
61003;SDS011;46889;37.310;13.582;2023-03-20T00:03:14;5.82;;;2.70;;
61003;SDS011;46889;37.310;13.582;2023-03-20T00:05:43;4.70;;;3.17;;
61003;SDS011;46889;37.310;13.582;2023-03-20T00:08:09;5.88;;;2.97;;
61003;SDS011;46889;37.310;13.582;2023-03-20T00:10:40;9.18;;;3.38;;
61003;SDS011;46889;37.310;13.582;2023-03-20T00:13:11;7.05;;;3.50;;
61003;SDS011;46889;37.310;13.582;2023-03-20T00:15:43;9.35;;;3.47;;
61003;SDS011;46889;37.310;13.582;2023-03-20T00:18:27;9.88;;;3.55;;
61003;SDS011;46889;37.310;13.582;2023-03-20T00:21:01;7.78;;;3.50;;
61003;SDS011;46889;37.310;13.582;2023-03-20T00:23:27;9.85;;;4.25;;
61003;SDS011;46889;37.310;13.582;2023-03-20T00:25:56;8.98;;;4.10;;
61003;SDS011;46889;37.310;13.582;2023-03-20T00:28:28;8.07;;;4.03;;
61003;SDS011;46889;37.310;13.582;2023-03-20T00:31:26;5.80;;;3.50;;
61003;SDS011;46889;37.310;13.582;2023-03-20T00:34:02;11.60;;;3.78;;
61003;SDS011;46889;37.310;13.582;2023-03-20T00:36:31;6.28;;;3.78;;
61003;SDS011;46889;37.310;13.582;2023-03-20T00:38:57;8.68;;;3.83;;
61003;SDS011;46889;37.310;13.582;2023-03-20T00:44:20;6.35;;;3.55;;
61003;SDS011;46889;37.310;13.582;2023-03-20T00:46:56;8.88;;;4.32;;
61003;SDS011;46889;37.310;13.582;2023-03-20T00:49:29;5.53;;;3.05;;
61003;SDS011;46889;37.310;13.582;2023-03-20T00:51:57;7.57;;;3.30;;
61003;SDS011;46889;37.310;13.582;2023-03-20T00:54:25;4.75;;;3.22;;
61003;SDS011;46889;37.310;13.582;2023-03-20T01:00:00;6.70;;;3.22;;
61003;SDS011;46889;37.310;13.582;2023-03-20T01:02:33;6.80;;;3.50;;
61003;SDS011;46889;37.310;13.582;2023-03-20T01:05:02;7.72;;;3.80;;
61003;SDS011;46889;37.310;13.582;2023-03-20T01:07:29;9.40;;;3.88;;
61003;SDS011;46889;37.310;13.582;2023-03-20T01:09:56;6.28;;;3.75;;
61003;SDS011;46889;37.310;13.582;2023-03-20T01:12:22;7.27;;;3.47;;
61003;SDS011;46889;37.310;13.582;2023-03-20T01:14:54;5.88;;;3.60;;
61003;SDS011;46889;37.310;13.582;2023-03-20T01:17:22;5.95;;;3.17;;
61003;SDS011;46889;37.310;13.582;2023-03-20T01:19:51;9.07;;;3.42;;
61003;SDS011;46889;37.310;13.582;2023-03-20T01:22:17;8.10;;;3.58;;
61003;SDS011;46889;37.310;13.582;2023-03-20T01:24:43;8.73;;;3.20;;
61003;SDS011;46889;37.310;13.582;2023-03-20T01:27:17;7.90;;;3.67;;
61003;SDS011;46889;37.310;13.582;2023-03-20T01:29:45;6.88;;;3.58;;
61003;SDS011;46889;37.310;13.582;2023-03-20T01:32:12;6.10;;;3.10;;
61003;SDS011;46889;37.310;13.582;2023-03-20T01:34:41;10.45;;;3.58;;
61003;SDS011;46889;37.310;13.582;2023-03-20T01:37:16;9.38;;;3.10;;
61003;SDS011;46889;37.310;13.582;2023-03-20T01:39:43;6.30;;;3.33;;
61003;SDS011;46889;37.310;13.582;2023-03-20T01:44:38;4.40;;;2.22;;
61003;SDS011;46889;37.310;13.582;2023-03-20T01:47:08;5.43;;;2.63;;
61003;SDS011;46889;37.310;13.582;2023-03-20T01:53:03;4.90;;;2.60;;
61003;SDS011;46889;37.310;13.582;2023-03-20T01:55:40;7.47;;;2.92;;
61003;SDS011;46889;37.310;13.582;2023-03-20T01:58:20;3.67;;;2.38;;
61003;SDS011;46889;37.310;13.582;2023-03-20T02:00:52;7.72;;;2.75;;
61003;SDS011;46889;37.310;13.582;2023-03-20T02:03:18;7.80;;;2.60;;
61003;SDS011;46889;37.310;13.582;2023-03-20T02:05:45;8.35;;;2.65;;
61003;SDS011;46889;37.310;13.582;2023-03-20T02:08:21;8.02;;;2.78;;
61003;SDS011;46889;37.310;13.582;2023-03-20T02:10:51;8.65;;;2.60;;
61003;SDS011;46889;37.310;13.582;2023-03-20T02:13:19;3.95;;;2.35;;
61003;SDS011;46889;37.310;13.582;2023-03-20T02:18:35;5.38;;;2.55;;
61003;SDS011;46889;37.310;13.582;2023-03-20T02:24:14;7.68;;;2.80;;
61003;SDS011;46889;37.310;13.582;2023-03-20T02:32:43;6.75;;;2.60;;
61003;SDS011;46889;37.310;13.582;2023-03-20T02:38:49;5.45;;;2.33;;
61003;SDS011;46889;37.310;13.582;2023-03-20T02:44:04;5.00;;;2.42;;
61003;SDS011;46889;37.310;13.582;2023-03-20T02:46:45;4.57;;;2.50;;
61003;SDS011;46889;37.310;13.582;2023-03-20T02:49:39;9.40;;;2.90;;
61003;SDS011;46889;37.310;13.582;2023-03-20T02:52:20;5.25;;;2.40;;
61003;SDS011;46889;37.310;13.582;2023-03-20T02:57:56;10.77;;;2.80;;
61003;SDS011;46889;37.310;13.582;2023-03-20T03:01:06;5.80;;;3.22;;
61003;SDS011;46889;37.310;13.582;2023-03-20T03:06:29;7.32;;;2.80;;
61003;SDS011;46889;37.310;13.582;2023-03-20T03:11:52;5.65;;;2.88;;
61003;SDS011;46889;37.310;13.582;2023-03-20T03:14:30;4.78;;;2.25;;
61003;SDS011;46889;37.310;13.582;2023-03-20T03:17:02;5.97;;;2.50;;
61003;SDS011;46889;37.310;13.582;2023-03-20T03:19:30;4.68;;;2.67;;
61003;SDS011;46889;37.310;13.582;2023-03-20T03:22:00;7.82;;;2.95;;
61003;SDS011;46889;37.310;13.582;2023-03-20T03:24:34;8.43;;;2.85;;
61003;SDS011;46889;37.310;13.582;2023-03-20T03:27:08;6.70;;;3.00;;
61003;SDS011;46889;37.310;13.582;2023-03-20T03:29:42;6.82;;;2.97;;
61003;SDS011;46889;37.310;13.582;2023-03-20T03:35:15;4.90;;;2.72;;
61003;SDS011;46889;37.310;13.582;2023-03-20T03:40:50;5.28;;;2.72;;
61003;SDS011;46889;37.310;13.582;2023-03-20T03:43:31;10.60;;;3.10;;
61003;SDS011;46889;37.310;13.582;2023-03-20T03:46:05;6.55;;;2.72;;
61003;SDS011;46889;37.310;13.582;2023-03-20T03:48:42;9.30;;;2.88;;
61003;SDS011;46889;37.310;13.582;2023-03-20T03:51:15;6.45;;;3.17;;
61003;SDS011;46889;37.310;13.582;2023-03-20T03:54:36;6.07;;;2.90;;
61003;SDS011;46889;37.310;13.582;2023-03-20T03:56:44;4.70;;;2.78;;
61003;SDS011;46889;37.310;13.582;2023-03-20T03:59:27;6.05;;;2.70;;
61003;SDS011;46889;37.310;13.582;2023-03-20T04:01:59;6.43;;;3.05;;
61003;SDS011;46889;37.310;13.582;2023-03-20T04:04:27;6.40;;;3.70;;
61003;SDS011;46889;37.310;13.582;2023-03-20T04:06:56;5.82;;;2.95;;
61003;SDS011;46889;37.310;13.582;2023-03-20T04:09:22;6.55;;;2.78;;
61003;SDS011;46889;37.310;13.582;2023-03-20T04:11:50;4.57;;;3.10;;
61003;SDS011;46889;37.310;13.582;2023-03-20T04:14:17;6.95;;;2.80;;
61003;SDS011;46889;37.310;13.582;2023-03-20T04:16:44;8.05;;;3.35;;
61003;SDS011;46889;37.310;13.582;2023-03-20T04:19:11;7.22;;;3.08;;
61003;SDS011;46889;37.310;13.582;2023-03-20T04:21:38;5.90;;;2.90;;
61003;SDS011;46889;37.310;13.582;2023-03-20T04:24:04;11.70;;;3.43;;
61003;SDS011;46889;37.310;13.582;2023-03-20T04:26:34;8.07;;;3.05;;
61003;SDS011;46889;37.310;13.582;2023-03-20T04:29:02;7.53;;;3.55;;
61003;SDS011;46889;37.310;13.582;2023-03-20T04:31:28;5.80;;;3.20;;
61003;SDS011;46889;37.310;13.582;2023-03-20T04:33:56;9.15;;;3.65;;
61003;SDS011;46889;37.310;13.582;2023-03-20T04:36:23;8.07;;;3.70;;
61003;SDS011;46889;37.310;13.582;2023-03-20T04:38:52;4.90;;;3.70;;
61003;SDS011;46889;37.310;13.582;2023-03-20T04:41:18;9.05;;;5.05;;
61003;SDS011;46889;37.310;13.582;2023-03-20T04:43:45;11.15;;;4.65;;
61003;SDS011;46889;37.310;13.582;2023-03-20T04:46:11;8.97;;;4.27;;
61003;SDS011;46889;37.310;13.582;2023-03-20T04:48:38;6.40;;;3.90;;
61003;SDS011;46889;37.310;13.582;2023-03-20T04:51:04;10.10;;;4.70;;
61003;SDS011;46889;37.310;13.582;2023-03-20T04:53:31;8.82;;;4.38;;
61003;SDS011;46889;37.310;13.582;2023-03-20T04:55:57;7.47;;;4.00;;
61003;SDS011;46889;37.310;13.582;2023-03-20T04:58:24;7.63;;;4.55;;
61003;SDS011;46889;37.310;13.582;2023-03-20T05:00:50;7.20;;;4.30;;
61003;SDS011;46889;37.310;13.582;2023-03-20T05:03:16;8.37;;;4.43;;
61003;SDS011;46889;37.310;13.582;2023-03-20T05:05:42;7.07;;;4.40;;
61003;SDS011;46889;37.310;13.582;2023-03-20T05:08:09;12.45;;;4.60;;
61003;SDS011;46889;37.310;13.582;2023-03-20T05:10:35;8.07;;;4.25;;
61003;SDS011;46889;37.310;13.582;2023-03-20T05:13:02;9.27;;;4.60;;
61003;SDS011;46889;37.310;13.582;2023-03-20T05:15:28;8.33;;;3.97;;
61003;SDS011;46889;37.310;13.582;2023-03-20T05:17:59;8.48;;;4.18;;
61003;SDS011;46889;37.310;13.582;2023-03-20T05:20:25;9.48;;;4.07;;
61003;SDS011;46889;37.310;13.582;2023-03-20T05:22:56;10.07;;;4.25;;
61003;SDS011;46889;37.310;13.582;2023-03-20T05:25:22;8.87;;;4.10;;
61003;SDS011;46889;37.310;13.582;2023-03-20T05:27:48;6.90;;;3.92;;
61003;SDS011;46889;37.310;13.582;2023-03-20T05:30:14;7.50;;;4.20;;
61003;SDS011;46889;37.310;13.582;2023-03-20T05:32:44;5.97;;;3.83;;
61003;SDS011;46889;37.310;13.582;2023-03-20T05:35:10;8.35;;;3.92;;
61003;SDS011;46889;37.310;13.582;2023-03-20T05:37:37;10.82;;;4.63;;
61003;SDS011;46889;37.310;13.582;2023-03-20T05:40:04;5.15;;;3.88;;
61003;SDS011;46889;37.310;13.582;2023-03-20T05:42:31;8.65;;;4.28;;
61003;SDS011;46889;37.310;13.582;2023-03-20T05:44:57;7.97;;;4.70;;
61003;SDS011;46889;37.310;13.582;2023-03-20T05:47:23;8.50;;;4.07;;
61003;SDS011;46889;37.310;13.582;2023-03-20T05:49:49;6.97;;;4.45;;
61003;SDS011;46889;37.310;13.582;2023-03-20T05:52:15;13.18;;;5.28;;
61003;SDS011;46889;37.310;13.582;2023-03-20T05:54:41;6.45;;;4.15;;
61003;SDS011;46889;37.310;13.582;2023-03-20T05:57:09;7.20;;;4.50;;
61003;SDS011;46889;37.310;13.582;2023-03-20T05:59:35;8.53;;;5.80;;
61003;SDS011;46889;37.310;13.582;2023-03-20T06:02:01;8.48;;;4.50;;
61003;SDS011;46889;37.310;13.582;2023-03-20T06:04:27;10.30;;;4.67;;
61003;SDS011;46889;37.310;13.582;2023-03-20T06:06:53;7.20;;;4.43;;
61003;SDS011;46889;37.310;13.582;2023-03-20T06:09:21;8.32;;;4.30;;
61003;SDS011;46889;37.310;13.582;2023-03-20T06:11:49;10.57;;;4.80;;
61003;SDS011;46889;37.310;13.582;2023-03-20T06:14:16;8.43;;;4.20;;
61003;SDS011;46889;37.310;13.582;2023-03-20T06:16:42;7.70;;;4.50;;
61003;SDS011;46889;37.310;13.582;2023-03-20T06:21:35;13.38;;;4.53;;
61003;SDS011;46889;37.310;13.582;2023-03-20T06:24:01;10.23;;;4.43;;
61003;SDS011;46889;37.310;13.582;2023-03-20T06:26:27;9.77;;;4.73;;
61003;SDS011;46889;37.310;13.582;2023-03-20T06:28:54;13.40;;;4.47;;
61003;SDS011;46889;37.310;13.582;2023-03-20T06:31:20;11.20;;;4.20;;
61003;SDS011;46889;37.310;13.582;2023-03-20T06:33:47;7.53;;;4.07;;
61003;SDS011;46889;37.310;13.582;2023-03-20T06:36:15;7.50;;;4.22;;
61003;SDS011;46889;37.310;13.582;2023-03-20T06:38:41;8.37;;;4.67;;
61003;SDS011;46889;37.310;13.582;2023-03-20T06:41:07;8.38;;;4.47;;
61003;SDS011;46889;37.310;13.582;2023-03-20T06:43:35;10.00;;;4.28;;
61003;SDS011;46889;37.310;13.582;2023-03-20T06:46:07;8.45;;;4.45;;
61003;SDS011;46889;37.310;13.582;2023-03-20T06:48:38;12.05;;;4.63;;
61003;SDS011;46889;37.310;13.582;2023-03-20T06:51:04;7.33;;;3.97;;
61003;SDS011;46889;37.310;13.582;2023-03-20T06:56:00;7.72;;;4.20;;
61003;SDS011;46889;37.310;13.582;2023-03-20T06:58:26;7.47;;;4.80;;
61003;SDS011;46889;37.310;13.582;2023-03-20T07:00:52;9.77;;;5.50;;
61003;SDS011;46889;37.310;13.582;2023-03-20T07:03:18;6.07;;;4.00;;
61003;SDS011;46889;37.310;13.582;2023-03-20T07:05:45;13.00;;;5.03;;
61003;SDS011;46889;37.310;13.582;2023-03-20T07:08:11;9.90;;;4.67;;
61003;SDS011;46889;37.310;13.582;2023-03-20T07:10:39;7.43;;;4.90;;
61003;SDS011;46889;37.310;13.582;2023-03-20T07:13:05;9.43;;;4.53;;
61003;SDS011;46889;37.310;13.582;2023-03-20T07:15:31;9.40;;;4.23;;
61003;SDS011;46889;37.310;13.582;2023-03-20T07:17:57;8.23;;;3.97;;
61003;SDS011;46889;37.310;13.582;2023-03-20T07:20:24;8.70;;;4.03;;
61003;SDS011;46889;37.310;13.582;2023-03-20T07:22:50;8.50;;;4.13;;
61003;SDS011;46889;37.310;13.582;2023-03-20T07:25:16;9.13;;;4.50;;
61003;SDS011;46889;37.310;13.582;2023-03-20T07:27:44;7.40;;;4.53;;
61003;SDS011;46889;37.310;13.582;2023-03-20T07:30:17;9.10;;;4.03;;
61003;SDS011;46889;37.310;13.582;2023-03-20T07:32:44;10.50;;;4.20;;
61003;SDS011;46889;37.310;13.582;2023-03-20T07:35:12;8.77;;;3.95;;
61003;SDS011;46889;37.310;13.582;2023-03-20T07:37:38;9.70;;;4.40;;
61003;SDS011;46889;37.310;13.582;2023-03-20T07:40:08;8.82;;;4.00;;
61003;SDS011;46889;37.310;13.582;2023-03-20T07:42:35;13.07;;;4.18;;
61003;SDS011;46889;37.310;13.582;2023-03-20T07:45:01;10.70;;;4.37;;
61003;SDS011;46889;37.310;13.582;2023-03-20T07:47:27;12.55;;;4.35;;
61003;SDS011;46889;37.310;13.582;2023-03-20T07:49:57;6.60;;;4.07;;
61003;SDS011;46889;37.310;13.582;2023-03-20T07:52:26;10.38;;;4.05;;
61003;SDS011;46889;37.310;13.582;2023-03-20T07:54:55;11.73;;;4.78;;
61003;SDS011;46889;37.310;13.582;2023-03-20T07:57:21;8.48;;;5.47;;
61003;SDS011;46889;37.310;13.582;2023-03-20T07:59:47;10.73;;;5.57;;
61003;SDS011;46889;37.310;13.582;2023-03-20T08:02:13;11.17;;;5.90;;
61003;SDS011;46889;37.310;13.582;2023-03-20T08:04:41;12.63;;;5.53;;
61003;SDS011;46889;37.310;13.582;2023-03-20T08:07:09;9.30;;;5.53;;
61003;SDS011;46889;37.310;13.582;2023-03-20T08:09:35;9.55;;;5.38;;
61003;SDS011;46889;37.310;13.582;2023-03-20T08:12:02;8.70;;;4.13;;
61003;SDS011;46889;37.310;13.582;2023-03-20T08:14:30;7.65;;;4.90;;
61003;SDS011;46889;37.310;13.582;2023-03-20T08:16:59;12.82;;;5.38;;
61003;SDS011;46889;37.310;13.582;2023-03-20T08:19:25;5.97;;;3.70;;
61003;SDS011;46889;37.310;13.582;2023-03-20T08:21:52;8.82;;;5.15;;
61003;SDS011;46889;37.310;13.582;2023-03-20T08:24:20;6.93;;;3.92;;
61003;SDS011;46889;37.310;13.582;2023-03-20T08:26:47;10.27;;;4.45;;
61003;SDS011;46889;37.310;13.582;2023-03-20T08:29:14;8.73;;;4.80;;
61003;SDS011;46889;37.310;13.582;2023-03-20T08:31:46;12.25;;;4.70;;
61003;SDS011;46889;37.310;13.582;2023-03-20T08:34:13;8.23;;;4.50;;
61003;SDS011;46889;37.310;13.582;2023-03-20T08:36:40;15.50;;;3.88;;
61003;SDS011;46889;37.310;13.582;2023-03-20T08:39:06;7.95;;;4.53;;
61003;SDS011;46889;37.310;13.582;2023-03-20T08:41:33;8.75;;;4.60;;
61003;SDS011;46889;37.310;13.582;2023-03-20T08:44:03;5.15;;;2.67;;
61003;SDS011;46889;37.310;13.582;2023-03-20T08:46:30;14.82;;;4.22;;
61003;SDS011;46889;37.310;13.582;2023-03-20T08:48:56;5.53;;;3.28;;
61003;SDS011;46889;37.310;13.582;2023-03-20T08:51:23;9.38;;;3.30;;
61003;SDS011;46889;37.310;13.582;2023-03-20T08:53:51;7.05;;;3.78;;
61003;SDS011;46889;37.310;13.582;2023-03-20T08:56:23;6.00;;;3.35;;
61003;SDS011;46889;37.310;13.582;2023-03-20T09:01:19;9.43;;;4.18;;
61003;SDS011;46889;37.310;13.582;2023-03-20T09:03:46;8.25;;;4.60;;
61003;SDS011;46889;37.310;13.582;2023-03-20T09:06:12;6.03;;;3.28;;
61003;SDS011;46889;37.310;13.582;2023-03-20T09:08:38;8.37;;;4.10;;
61003;SDS011;46889;37.310;13.582;2023-03-20T09:11:04;11.35;;;4.55;;
61003;SDS011;46889;37.310;13.582;2023-03-20T09:13:32;19.40;;;5.47;;
61003;SDS011;46889;37.310;13.582;2023-03-20T09:15:58;9.48;;;4.40;;
61003;SDS011;46889;37.310;13.582;2023-03-20T09:18:25;7.20;;;4.57;;
61003;SDS011;46889;37.310;13.582;2023-03-20T09:20:51;8.60;;;4.40;;
61003;SDS011;46889;37.310;13.582;2023-03-20T09:23:20;8.40;;;4.22;;
61003;SDS011;46889;37.310;13.582;2023-03-20T09:25:46;7.53;;;4.68;;
61003;SDS011;46889;37.310;13.582;2023-03-20T09:28:12;7.90;;;4.75;;
61003;SDS011;46889;37.310;13.582;2023-03-20T09:30:39;7.33;;;4.30;;
61003;SDS011;46889;37.310;13.582;2023-03-20T09:33:05;10.50;;;4.68;;
61003;SDS011;46889;37.310;13.582;2023-03-20T09:35:31;8.45;;;4.85;;
61003;SDS011;46889;37.310;13.582;2023-03-20T09:37:57;10.82;;;4.82;;
61003;SDS011;46889;37.310;13.582;2023-03-20T09:53:53;7.13;;;3.50;;
61003;SDS011;46889;37.310;13.582;2023-03-20T09:56:25;7.00;;;3.50;;
61003;SDS011;46889;37.310;13.582;2023-03-20T09:58:55;6.90;;;3.38;;
61003;SDS011;46889;37.310;13.582;2023-03-20T10:01:40;6.97;;;3.03;;
61003;SDS011;46889;37.310;13.582;2023-03-20T10:04:31;10.10;;;3.72;;
61003;SDS011;46889;37.310;13.582;2023-03-20T10:07:00;8.57;;;3.53;;
61003;SDS011;46889;37.310;13.582;2023-03-20T10:09:30;11.13;;;3.55;;
61003;SDS011;46889;37.310;13.582;2023-03-20T10:22:58;8.77;;;5.30;;
61003;SDS011;46889;37.310;13.582;2023-03-20T10:25:32;6.53;;;2.60;;
61003;SDS011;46889;37.310;13.582;2023-03-20T10:28:10;8.25;;;3.20;;
61003;SDS011;46889;37.310;13.582;2023-03-20T10:41:54;6.82;;;2.45;;
61003;SDS011;46889;37.310;13.582;2023-03-20T10:44:28;7.10;;;2.78;;
61003;SDS011;46889;37.310;13.582;2023-03-20T10:47:00;4.15;;;2.60;;
61003;SDS011;46889;37.310;13.582;2023-03-20T10:49:39;6.22;;;2.78;;
61003;SDS011;46889;37.310;13.582;2023-03-20T10:52:25;6.35;;;2.72;;
61003;SDS011;46889;37.310;13.582;2023-03-20T10:54:56;7.40;;;2.78;;
61003;SDS011;46889;37.310;13.582;2023-03-20T10:57:45;5.72;;;2.42;;
61003;SDS011;46889;37.310;13.582;2023-03-20T11:00:17;10.70;;;1.67;;
61003;SDS011;46889;37.310;13.582;2023-03-20T11:02:47;5.32;;;1.80;;
61003;SDS011;46889;37.310;13.582;2023-03-20T11:05:27;4.75;;;2.00;;
61003;SDS011;46889;37.310;13.582;2023-03-20T11:08:14;3.88;;;1.52;;
61003;SDS011;46889;37.310;13.582;2023-03-20T11:10:42;5.47;;;2.10;;
61003;SDS011;46889;37.310;13.582;2023-03-20T11:15:56;6.68;;;1.95;;
61003;SDS011;46889;37.310;13.582;2023-03-20T11:18:33;4.22;;;1.75;;
61003;SDS011;46889;37.310;13.582;2023-03-20T11:21:00;5.47;;;1.70;;
61003;SDS011;46889;37.310;13.582;2023-03-20T11:23:29;4.85;;;1.70;;
61003;SDS011;46889;37.310;13.582;2023-03-20T11:26:03;3.63;;;1.50;;
61003;SDS011;46889;37.310;13.582;2023-03-20T11:29:07;3.78;;;1.35;;
61003;SDS011;46889;37.310;13.582;2023-03-20T11:31:54;5.35;;;1.42;;
61003;SDS011;46889;37.310;13.582;2023-03-20T11:34:52;6.63;;;1.35;;
61003;SDS011;46889;37.310;13.582;2023-03-20T11:37:35;4.35;;;1.40;;
61003;SDS011;46889;37.310;13.582;2023-03-20T11:42:53;6.65;;;2.20;;
61003;SDS011;46889;37.310;13.582;2023-03-20T11:45:20;5.60;;;2.10;;
61003;SDS011;46889;37.310;13.582;2023-03-20T11:47:51;7.13;;;1.85;;
61003;SDS011;46889;37.310;13.582;2023-03-20T11:50:26;6.45;;;1.58;;
61003;SDS011;46889;37.310;13.582;2023-03-20T11:52:59;3.97;;;1.40;;
61003;SDS011;46889;37.310;13.582;2023-03-20T11:55:29;4.65;;;1.40;;
61003;SDS011;46889;37.310;13.582;2023-03-20T11:57:59;3.50;;;1.50;;
61003;SDS011;46889;37.310;13.582;2023-03-20T12:00:35;5.97;;;1.58;;
61003;SDS011;46889;37.310;13.582;2023-03-20T12:06:07;8.82;;;2.45;;
61003;SDS011;46889;37.310;13.582;2023-03-20T12:08:39;4.03;;;2.38;;
61003;SDS011;46889;37.310;13.582;2023-03-20T12:11:23;5.85;;;1.73;;
61003;SDS011;46889;37.310;13.582;2023-03-20T12:14:15;4.47;;;2.13;;
61003;SDS011;46889;37.310;13.582;2023-03-20T12:19:46;6.03;;;2.55;;
61003;SDS011;46889;37.310;13.582;2023-03-20T12:22:22;6.82;;;1.90;;
61003;SDS011;46889;37.310;13.582;2023-03-20T12:24:56;5.25;;;1.63;;
61003;SDS011;46889;37.310;13.582;2023-03-20T12:27:44;7.60;;;3.03;;
61003;SDS011;46889;37.310;13.582;2023-03-20T12:33:20;7.15;;;3.03;;
61003;SDS011;46889;37.310;13.582;2023-03-20T12:36:03;7.50;;;2.00;;
61003;SDS011;46889;37.310;13.582;2023-03-20T12:38:37;6.80;;;1.92;;
61003;SDS011;46889;37.310;13.582;2023-03-20T12:41:08;11.63;;;1.75;;
61003;SDS011;46889;37.310;13.582;2023-03-20T12:44:11;3.42;;;1.80;;
61003;SDS011;46889;37.310;13.582;2023-03-20T12:47:28;5.25;;;1.50;;
61003;SDS011;46889;37.310;13.582;2023-03-20T12:50:32;6.03;;;1.80;;
61003;SDS011;46889;37.310;13.582;2023-03-20T12:53:15;5.68;;;2.28;;
61003;SDS011;46889;37.310;13.582;2023-03-20T12:56:13;4.90;;;1.73;;
61003;SDS011;46889;37.310;13.582;2023-03-20T13:01:52;6.35;;;2.00;;
61003;SDS011;46889;37.310;13.582;2023-03-20T13:10:20;11.20;;;2.35;;
61003;SDS011;46889;37.310;13.582;2023-03-20T13:15:47;4.47;;;2.00;;
61003;SDS011;46889;37.310;13.582;2023-03-20T13:21:04;6.20;;;1.65;;
61003;SDS011;46889;37.310;13.582;2023-03-20T13:26:28;3.40;;;1.58;;
61003;SDS011;46889;37.310;13.582;2023-03-20T13:29:18;6.65;;;2.33;;
61003;SDS011;46889;37.310;13.582;2023-03-20T13:32:11;3.70;;;1.60;;
61003;SDS011;46889;37.310;13.582;2023-03-20T13:40:07;4.07;;;1.70;;
61003;SDS011;46889;37.310;13.582;2023-03-20T13:43:06;5.03;;;1.40;;
61003;SDS011;46889;37.310;13.582;2023-03-20T13:45:40;5.53;;;1.80;;
61003;SDS011;46889;37.310;13.582;2023-03-20T13:53:32;7.45;;;2.28;;
61003;SDS011;46889;37.310;13.582;2023-03-20T14:04:21;4.18;;;1.50;;
61003;SDS011;46889;37.310;13.582;2023-03-20T14:06:50;6.05;;;2.08;;
61003;SDS011;46889;37.310;13.582;2023-03-20T14:09:27;7.25;;;2.05;;
61003;SDS011;46889;37.310;13.582;2023-03-20T14:12:00;10.57;;;5.22;;
61003;SDS011;46889;37.310;13.582;2023-03-20T14:14:42;9.82;;;2.53;;
61003;SDS011;46889;37.310;13.582;2023-03-20T14:17:15;9.13;;;2.15;;
61003;SDS011;46889;37.310;13.582;2023-03-20T14:19:43;6.47;;;2.00;;
61003;SDS011;46889;37.310;13.582;2023-03-20T14:24:47;6.45;;;2.05;;
61003;SDS011;46889;37.310;13.582;2023-03-20T14:27:19;8.15;;;2.17;;
61003;SDS011;46889;37.310;13.582;2023-03-20T14:29:48;6.93;;;2.03;;
61003;SDS011;46889;37.310;13.582;2023-03-20T14:33:22;5.97;;;2.10;;
61003;SDS011;46889;37.310;13.582;2023-03-20T14:38:29;4.75;;;2.20;;
61003;SDS011;46889;37.310;13.582;2023-03-20T14:41:47;6.43;;;2.00;;
61003;SDS011;46889;37.310;13.582;2023-03-20T14:44:21;4.95;;;2.15;;
61003;SDS011;46889;37.310;13.582;2023-03-20T14:47:20;6.75;;;2.58;;
61003;SDS011;46889;37.310;13.582;2023-03-20T14:53:12;6.13;;;2.03;;
61003;SDS011;46889;37.310;13.582;2023-03-20T15:01:03;11.75;;;4.15;;
61003;SDS011;46889;37.310;13.582;2023-03-20T15:03:31;12.75;;;3.65;;
61003;SDS011;46889;37.310;13.582;2023-03-20T15:06:02;7.00;;;3.70;;
61003;SDS011;46889;37.310;13.582;2023-03-20T15:08:36;6.78;;;3.22;;
61003;SDS011;46889;37.310;13.582;2023-03-20T15:11:13;8.27;;;3.72;;
61003;SDS011;46889;37.310;13.582;2023-03-20T15:13:41;11.90;;;4.07;;
61003;SDS011;46889;37.310;13.582;2023-03-20T15:16:09;7.30;;;3.10;;
61003;SDS011;46889;37.310;13.582;2023-03-20T15:18:40;7.82;;;3.67;;
61003;SDS011;46889;37.310;13.582;2023-03-20T15:21:48;6.95;;;4.00;;
61003;SDS011;46889;37.310;13.582;2023-03-20T15:24:01;7.88;;;3.92;;
61003;SDS011;46889;37.310;13.582;2023-03-20T15:26:27;9.00;;;4.45;;
61003;SDS011;46889;37.310;13.582;2023-03-20T15:28:58;9.02;;;4.53;;
61003;SDS011;46889;37.310;13.582;2023-03-20T15:31:30;8.02;;;4.90;;
61003;SDS011;46889;37.310;13.582;2023-03-20T15:34:04;12.80;;;5.10;;
61003;SDS011;46889;37.310;13.582;2023-03-20T15:36:33;9.88;;;4.88;;
61003;SDS011;46889;37.310;13.582;2023-03-20T15:39:17;6.35;;;3.67;;
61003;SDS011;46889;37.310;13.582;2023-03-20T15:42:00;12.43;;;4.50;;
61003;SDS011;46889;37.310;13.582;2023-03-20T15:44:35;15.10;;;5.65;;
61003;SDS011;46889;37.310;13.582;2023-03-20T15:49:41;7.55;;;4.50;;
61003;SDS011;46889;37.310;13.582;2023-03-20T15:54:42;8.77;;;4.47;;
61003;SDS011;46889;37.310;13.582;2023-03-20T15:57:10;12.05;;;4.93;;
61003;SDS011;46889;37.310;13.582;2023-03-20T15:59:46;13.02;;;4.32;;
61003;SDS011;46889;37.310;13.582;2023-03-20T16:02:12;8.00;;;4.45;;
61003;SDS011;46889;37.310;13.582;2023-03-20T16:04:46;9.40;;;4.05;;
61003;SDS011;46889;37.310;13.582;2023-03-20T16:07:20;10.45;;;5.15;;
61003;SDS011;46889;37.310;13.582;2023-03-20T16:09:56;9.90;;;4.40;;
61003;SDS011;46889;37.310;13.582;2023-03-20T16:12:23;11.82;;;4.88;;
61003;SDS011;46889;37.310;13.582;2023-03-20T16:14:53;14.25;;;5.28;;
61003;SDS011;46889;37.310;13.582;2023-03-20T16:17:20;11.48;;;5.45;;
61003;SDS011;46889;37.310;13.582;2023-03-20T16:19:49;10.25;;;4.55;;
61003;SDS011;46889;37.310;13.582;2023-03-20T16:22:27;16.95;;;5.68;;
61003;SDS011;46889;37.310;13.582;2023-03-20T16:24:57;11.32;;;4.97;;
61003;SDS011;46889;37.310;13.582;2023-03-20T16:27:27;13.63;;;5.22;;
61003;SDS011;46889;37.310;13.582;2023-03-20T16:29:55;8.30;;;5.20;;
61003;SDS011;46889;37.310;13.582;2023-03-20T16:32:26;9.80;;;5.40;;
61003;SDS011;46889;37.310;13.582;2023-03-20T16:35:03;13.65;;;5.65;;
61003;SDS011;46889;37.310;13.582;2023-03-20T16:37:58;17.90;;;5.95;;
61003;SDS011;46889;37.310;13.582;2023-03-20T16:40:39;11.50;;;4.90;;
61003;SDS011;46889;37.310;13.582;2023-03-20T16:43:17;10.35;;;5.30;;
61003;SDS011;46889;37.310;13.582;2023-03-20T16:45:51;11.98;;;5.20;;
61003;SDS011;46889;37.310;13.582;2023-03-20T16:48:27;13.45;;;5.57;;
61003;SDS011;46889;37.310;13.582;2023-03-20T16:53:35;14.13;;;6.20;;
61003;SDS011;46889;37.310;13.582;2023-03-20T16:56:13;11.77;;;5.50;;
61003;SDS011;46889;37.310;13.582;2023-03-20T16:58:46;8.73;;;5.05;;
61003;SDS011;46889;37.310;13.582;2023-03-20T17:01:15;11.60;;;5.30;;
61003;SDS011;46889;37.310;13.582;2023-03-20T17:03:50;8.60;;;4.88;;
61003;SDS011;46889;37.310;13.582;2023-03-20T17:08:50;8.43;;;5.55;;
61003;SDS011;46889;37.310;13.582;2023-03-20T17:11:32;10.57;;;5.22;;
61003;SDS011;46889;37.310;13.582;2023-03-20T17:14:00;7.88;;;5.50;;
61003;SDS011;46889;37.310;13.582;2023-03-20T17:16:28;12.68;;;6.57;;
61003;SDS011;46889;37.310;13.582;2023-03-20T17:19:04;11.52;;;6.05;;
61003;SDS011;46889;37.310;13.582;2023-03-20T17:21:34;9.00;;;5.30;;
61003;SDS011;46889;37.310;13.582;2023-03-20T17:24:01;7.32;;;5.13;;
61003;SDS011;46889;37.310;13.582;2023-03-20T17:26:27;12.88;;;6.05;;
61003;SDS011;46889;37.310;13.582;2023-03-20T17:28:54;8.82;;;4.93;;
61003;SDS011;46889;37.310;13.582;2023-03-20T17:31:20;15.07;;;5.32;;
61003;SDS011;46889;37.310;13.582;2023-03-20T17:33:46;9.60;;;4.63;;
61003;SDS011;46889;37.310;13.582;2023-03-20T17:36:17;15.40;;;6.55;;
61003;SDS011;46889;37.310;13.582;2023-03-20T17:38:44;10.90;;;5.75;;
61003;SDS011;46889;37.310;13.582;2023-03-20T17:41:14;8.73;;;5.32;;
61003;SDS011;46889;37.310;13.582;2023-03-20T17:43:43;8.65;;;4.82;;